sensor_id;sensor_type;location;lat;lon;timestamp;temperature;humidity
831;DHT22;397;50.564;7.272;2023-07-16T00:00:51;21.80;99.90
831;DHT22;397;50.564;7.272;2023-07-16T00:03:19;21.70;99.90
831;DHT22;397;50.564;7.272;2023-07-16T00:05:50;21.70;99.90
831;DHT22;397;50.564;7.272;2023-07-16T00:08:18;21.70;99.90
831;DHT22;397;50.564;7.272;2023-07-16T00:10:45;21.80;99.90
831;DHT22;397;50.564;7.272;2023-07-16T00:13:13;21.60;99.90
831;DHT22;397;50.564;7.272;2023-07-16T00:15:41;21.60;99.90
831;DHT22;397;50.564;7.272;2023-07-16T00:18:08;21.50;99.90
831;DHT22;397;50.564;7.272;2023-07-16T00:20:36;21.30;99.90
831;DHT22;397;50.564;7.272;2023-07-16T00:23:03;21.30;99.90
831;DHT22;397;50.564;7.272;2023-07-16T00:25:31;21.20;99.90
831;DHT22;397;50.564;7.272;2023-07-16T00:27:58;21.10;99.90
831;DHT22;397;50.564;7.272;2023-07-16T00:30:26;21.10;99.90
831;DHT22;397;50.564;7.272;2023-07-16T00:32:53;21.00;99.90
831;DHT22;397;50.564;7.272;2023-07-16T00:35:21;21.10;99.90
831;DHT22;397;50.564;7.272;2023-07-16T00:37:48;21.00;99.90
831;DHT22;397;50.564;7.272;2023-07-16T00:40:16;21.00;99.90
831;DHT22;397;50.564;7.272;2023-07-16T00:42:43;21.00;99.90
831;DHT22;397;50.564;7.272;2023-07-16T00:45:14;20.90;99.90
831;DHT22;397;50.564;7.272;2023-07-16T00:47:42;20.80;99.90
831;DHT22;397;50.564;7.272;2023-07-16T00:50:11;20.90;99.90
831;DHT22;397;50.564;7.272;2023-07-16T00:52:39;20.80;99.90
831;DHT22;397;50.564;7.272;2023-07-16T00:55:08;20.90;99.90
831;DHT22;397;50.564;7.272;2023-07-16T00:57:35;20.90;99.90
831;DHT22;397;50.564;7.272;2023-07-16T01:00:04;20.80;99.90
831;DHT22;397;50.564;7.272;2023-07-16T01:02:32;20.90;99.90
831;DHT22;397;50.564;7.272;2023-07-16T01:05:00;20.80;99.90
831;DHT22;397;50.564;7.272;2023-07-16T01:07:29;20.70;99.90
831;DHT22;397;50.564;7.272;2023-07-16T01:09:58;20.60;99.90
831;DHT22;397;50.564;7.272;2023-07-16T01:12:27;20.60;99.90
831;DHT22;397;50.564;7.272;2023-07-16T01:14:56;20.50;99.90
831;DHT22;397;50.564;7.272;2023-07-16T01:17:25;20.50;99.90
831;DHT22;397;50.564;7.272;2023-07-16T01:19:52;20.40;99.90
831;DHT22;397;50.564;7.272;2023-07-16T01:22:32;20.40;99.90
831;DHT22;397;50.564;7.272;2023-07-16T01:25:16;20.40;99.90
831;DHT22;397;50.564;7.272;2023-07-16T01:30:19;20.20;99.90
831;DHT22;397;50.564;7.272;2023-07-16T01:32:47;20.20;99.90
831;DHT22;397;50.564;7.272;2023-07-16T01:35:16;20.20;99.90
831;DHT22;397;50.564;7.272;2023-07-16T01:37:43;20.30;99.90
831;DHT22;397;50.564;7.272;2023-07-16T01:40:11;20.20;99.90
831;DHT22;397;50.564;7.272;2023-07-16T01:42:39;20.20;99.90
831;DHT22;397;50.564;7.272;2023-07-16T01:45:06;20.10;99.90
831;DHT22;397;50.564;7.272;2023-07-16T01:50:21;20.10;99.90
831;DHT22;397;50.564;7.272;2023-07-16T01:52:49;19.90;99.90
831;DHT22;397;50.564;7.272;2023-07-16T01:55:16;20.00;99.90
831;DHT22;397;50.564;7.272;2023-07-16T01:57:44;20.00;99.90
831;DHT22;397;50.564;7.272;2023-07-16T02:00:12;20.00;99.90
831;DHT22;397;50.564;7.272;2023-07-16T02:02:40;19.90;99.90
831;DHT22;397;50.564;7.272;2023-07-16T02:05:07;19.90;99.90
831;DHT22;397;50.564;7.272;2023-07-16T02:07:35;19.90;99.90
831;DHT22;397;50.564;7.272;2023-07-16T02:10:03;19.80;99.90
831;DHT22;397;50.564;7.272;2023-07-16T02:12:30;19.70;99.90
831;DHT22;397;50.564;7.272;2023-07-16T02:14:58;19.70;99.90
831;DHT22;397;50.564;7.272;2023-07-16T02:17:25;19.60;99.90
831;DHT22;397;50.564;7.272;2023-07-16T02:19:53;19.60;99.90
831;DHT22;397;50.564;7.272;2023-07-16T02:22:20;19.60;99.90
831;DHT22;397;50.564;7.272;2023-07-16T02:24:48;19.50;99.90
831;DHT22;397;50.564;7.272;2023-07-16T02:27:15;19.40;99.90
831;DHT22;397;50.564;7.272;2023-07-16T02:29:43;19.40;99.90
831;DHT22;397;50.564;7.272;2023-07-16T02:32:10;19.40;99.90
831;DHT22;397;50.564;7.272;2023-07-16T02:34:38;19.40;99.90
831;DHT22;397;50.564;7.272;2023-07-16T02:37:05;19.40;99.90
831;DHT22;397;50.564;7.272;2023-07-16T02:39:33;19.30;99.90
831;DHT22;397;50.564;7.272;2023-07-16T02:42:00;19.30;99.90
831;DHT22;397;50.564;7.272;2023-07-16T02:44:28;19.40;99.90
831;DHT22;397;50.564;7.272;2023-07-16T02:46:55;19.40;99.90
831;DHT22;397;50.564;7.272;2023-07-16T02:49:23;19.20;99.90
831;DHT22;397;50.564;7.272;2023-07-16T02:51:50;19.10;99.90
831;DHT22;397;50.564;7.272;2023-07-16T02:54:18;19.10;99.90
831;DHT22;397;50.564;7.272;2023-07-16T02:56:46;19.00;99.90
831;DHT22;397;50.564;7.272;2023-07-16T02:59:14;19.00;99.90
831;DHT22;397;50.564;7.272;2023-07-16T03:01:41;19.00;99.90
831;DHT22;397;50.564;7.272;2023-07-16T03:04:09;19.00;99.90
831;DHT22;397;50.564;7.272;2023-07-16T03:06:36;19.00;99.90
831;DHT22;397;50.564;7.272;2023-07-16T03:09:04;19.00;99.90
831;DHT22;397;50.564;7.272;2023-07-16T03:11:32;19.00;99.90
831;DHT22;397;50.564;7.272;2023-07-16T03:13:59;19.00;99.90
831;DHT22;397;50.564;7.272;2023-07-16T03:16:27;19.00;99.90
831;DHT22;397;50.564;7.272;2023-07-16T03:18:54;18.90;99.90
831;DHT22;397;50.564;7.272;2023-07-16T03:21:22;19.00;99.90
831;DHT22;397;50.564;7.272;2023-07-16T03:23:49;19.00;99.90
831;DHT22;397;50.564;7.272;2023-07-16T03:26:17;19.00;99.90
831;DHT22;397;50.564;7.272;2023-07-16T03:28:44;18.90;99.90
831;DHT22;397;50.564;7.272;2023-07-16T03:31:12;18.90;99.90
831;DHT22;397;50.564;7.272;2023-07-16T03:33:39;18.90;99.90
831;DHT22;397;50.564;7.272;2023-07-16T03:36:07;18.90;99.90
831;DHT22;397;50.564;7.272;2023-07-16T03:38:34;18.80;99.90
831;DHT22;397;50.564;7.272;2023-07-16T03:41:02;18.80;99.90
831;DHT22;397;50.564;7.272;2023-07-16T03:43:29;18.80;99.90
831;DHT22;397;50.564;7.272;2023-07-16T03:45:57;18.80;99.90
831;DHT22;397;50.564;7.272;2023-07-16T03:48:24;18.80;99.90
831;DHT22;397;50.564;7.272;2023-07-16T03:50:52;18.80;99.90
831;DHT22;397;50.564;7.272;2023-07-16T03:53:19;18.80;99.90
831;DHT22;397;50.564;7.272;2023-07-16T03:55:47;18.60;99.90
831;DHT22;397;50.564;7.272;2023-07-16T03:58:14;18.70;99.90
831;DHT22;397;50.564;7.272;2023-07-16T04:00:42;18.80;99.90
831;DHT22;397;50.564;7.272;2023-07-16T04:03:10;18.80;99.90
831;DHT22;397;50.564;7.272;2023-07-16T04:05:38;19.00;99.90
831;DHT22;397;50.564;7.272;2023-07-16T04:08:05;18.90;99.90
831;DHT22;397;50.564;7.272;2023-07-16T04:10:35;18.80;99.90
831;DHT22;397;50.564;7.272;2023-07-16T04:13:03;18.90;99.90
831;DHT22;397;50.564;7.272;2023-07-16T04:15:30;18.90;99.90
831;DHT22;397;50.564;7.272;2023-07-16T04:17:58;18.90;99.90
831;DHT22;397;50.564;7.272;2023-07-16T04:20:25;18.90;99.90
831;DHT22;397;50.564;7.272;2023-07-16T04:22:52;19.10;99.90
831;DHT22;397;50.564;7.272;2023-07-16T04:25:20;19.20;99.90
831;DHT22;397;50.564;7.272;2023-07-16T04:27:47;19.60;99.90
831;DHT22;397;50.564;7.272;2023-07-16T04:30:15;19.90;99.90
831;DHT22;397;50.564;7.272;2023-07-16T04:32:42;19.60;99.90
831;DHT22;397;50.564;7.272;2023-07-16T04:35:10;19.60;99.90
831;DHT22;397;50.564;7.272;2023-07-16T04:37:37;20.10;99.90
831;DHT22;397;50.564;7.272;2023-07-16T04:40:06;21.10;99.90
831;DHT22;397;50.564;7.272;2023-07-16T04:42:33;22.00;99.90
831;DHT22;397;50.564;7.272;2023-07-16T04:45:01;22.20;99.90
831;DHT22;397;50.564;7.272;2023-07-16T04:47:29;21.70;99.90
831;DHT22;397;50.564;7.272;2023-07-16T04:49:58;22.20;99.90
831;DHT22;397;50.564;7.272;2023-07-16T04:52:26;22.50;99.90
831;DHT22;397;50.564;7.272;2023-07-16T04:54:54;21.90;99.90
831;DHT22;397;50.564;7.272;2023-07-16T04:57:21;21.40;99.90
831;DHT22;397;50.564;7.272;2023-07-16T04:59:49;22.20;99.90
831;DHT22;397;50.564;7.272;2023-07-16T05:02:16;23.60;99.90
831;DHT22;397;50.564;7.272;2023-07-16T05:04:44;24.30;99.90
831;DHT22;397;50.564;7.272;2023-07-16T05:07:13;25.30;99.90
831;DHT22;397;50.564;7.272;2023-07-16T05:09:42;26.00;99.90
831;DHT22;397;50.564;7.272;2023-07-16T05:12:10;25.80;99.90
831;DHT22;397;50.564;7.272;2023-07-16T05:14:45;26.20;99.90
831;DHT22;397;50.564;7.272;2023-07-16T05:17:13;26.30;99.90
831;DHT22;397;50.564;7.272;2023-07-16T05:19:41;26.50;99.90
831;DHT22;397;50.564;7.272;2023-07-16T05:22:09;27.10;98.20
831;DHT22;397;50.564;7.272;2023-07-16T05:24:37;27.00;98.50
831;DHT22;397;50.564;7.272;2023-07-16T05:27:05;27.00;94.60
831;DHT22;397;50.564;7.272;2023-07-16T05:29:32;27.90;91.90
831;DHT22;397;50.564;7.272;2023-07-16T05:32:00;27.30;85.60
831;DHT22;397;50.564;7.272;2023-07-16T05:34:27;27.40;87.70
831;DHT22;397;50.564;7.272;2023-07-16T05:36:55;27.40;85.10
831;DHT22;397;50.564;7.272;2023-07-16T05:39:23;27.30;82.30
831;DHT22;397;50.564;7.272;2023-07-16T05:41:50;27.60;80.20
831;DHT22;397;50.564;7.272;2023-07-16T05:44:18;26.70;79.90
831;DHT22;397;50.564;7.272;2023-07-16T05:46:46;26.60;79.80
831;DHT22;397;50.564;7.272;2023-07-16T05:49:14;26.70;81.00
831;DHT22;397;50.564;7.272;2023-07-16T05:51:41;26.60;76.10
831;DHT22;397;50.564;7.272;2023-07-16T05:54:09;25.90;78.00
831;DHT22;397;50.564;7.272;2023-07-16T05:56:37;26.10;79.80
831;DHT22;397;50.564;7.272;2023-07-16T05:59:04;25.20;77.90
831;DHT22;397;50.564;7.272;2023-07-16T06:01:32;26.10;81.40
831;DHT22;397;50.564;7.272;2023-07-16T06:03:59;26.90;77.60
831;DHT22;397;50.564;7.272;2023-07-16T06:06:28;27.30;72.60
831;DHT22;397;50.564;7.272;2023-07-16T06:08:55;25.80;73.20
831;DHT22;397;50.564;7.272;2023-07-16T06:11:23;26.00;74.40
831;DHT22;397;50.564;7.272;2023-07-16T06:13:54;26.90;74.90
831;DHT22;397;50.564;7.272;2023-07-16T06:16:22;25.70;72.40
831;DHT22;397;50.564;7.272;2023-07-16T06:18:49;26.00;75.90
831;DHT22;397;50.564;7.272;2023-07-16T06:21:17;26.80;74.70
831;DHT22;397;50.564;7.272;2023-07-16T06:23:44;27.20;71.40
831;DHT22;397;50.564;7.272;2023-07-16T06:26:12;27.20;70.80
831;DHT22;397;50.564;7.272;2023-07-16T06:28:39;26.20;69.20
831;DHT22;397;50.564;7.272;2023-07-16T06:31:07;25.80;70.40
831;DHT22;397;50.564;7.272;2023-07-16T06:33:34;25.40;72.00
831;DHT22;397;50.564;7.272;2023-07-16T06:36:02;26.20;70.50
831;DHT22;397;50.564;7.272;2023-07-16T06:38:29;25.60;69.20
831;DHT22;397;50.564;7.272;2023-07-16T06:40:57;25.60;70.00
831;DHT22;397;50.564;7.272;2023-07-16T06:43:24;25.40;70.70
831;DHT22;397;50.564;7.272;2023-07-16T06:45:52;25.80;70.50
831;DHT22;397;50.564;7.272;2023-07-16T06:48:19;25.50;70.80
831;DHT22;397;50.564;7.272;2023-07-16T06:50:47;25.10;70.50
831;DHT22;397;50.564;7.272;2023-07-16T06:53:14;25.20;71.40
831;DHT22;397;50.564;7.272;2023-07-16T06:55:42;25.50;71.10
831;DHT22;397;50.564;7.272;2023-07-16T06:58:14;25.60;69.50
831;DHT22;397;50.564;7.272;2023-07-16T07:00:40;25.50;70.00
831;DHT22;397;50.564;7.272;2023-07-16T07:03:08;25.10;68.80
831;DHT22;397;50.564;7.272;2023-07-16T07:05:35;24.30;70.80
831;DHT22;397;50.564;7.272;2023-07-16T07:08:03;24.40;72.50
831;DHT22;397;50.564;7.272;2023-07-16T07:10:31;24.50;71.50
831;DHT22;397;50.564;7.272;2023-07-16T07:12:59;24.60;70.20
831;DHT22;397;50.564;7.272;2023-07-16T07:15:26;24.50;69.40
831;DHT22;397;50.564;7.272;2023-07-16T07:17:54;24.40;69.50
831;DHT22;397;50.564;7.272;2023-07-16T07:20:21;24.40;69.30
831;DHT22;397;50.564;7.272;2023-07-16T07:22:49;24.40;69.50
831;DHT22;397;50.564;7.272;2023-07-16T07:25:16;24.60;69.20
831;DHT22;397;50.564;7.272;2023-07-16T07:27:45;24.50;68.90
831;DHT22;397;50.564;7.272;2023-07-16T07:30:12;24.90;69.20
831;DHT22;397;50.564;7.272;2023-07-16T07:32:39;24.30;67.90
831;DHT22;397;50.564;7.272;2023-07-16T07:35:07;24.40;69.10
831;DHT22;397;50.564;7.272;2023-07-16T07:37:35;24.90;69.80
831;DHT22;397;50.564;7.272;2023-07-16T07:40:03;25.00;67.40
831;DHT22;397;50.564;7.272;2023-07-16T07:42:30;24.90;66.90
831;DHT22;397;50.564;7.272;2023-07-16T07:44:58;25.00;67.70
831;DHT22;397;50.564;7.272;2023-07-16T07:47:26;24.70;65.60
831;DHT22;397;50.564;7.272;2023-07-16T07:49:53;24.80;66.50
831;DHT22;397;50.564;7.272;2023-07-16T07:52:21;24.50;65.80
831;DHT22;397;50.564;7.272;2023-07-16T07:54:48;24.30;67.00
831;DHT22;397;50.564;7.272;2023-07-16T07:57:16;24.50;65.50
831;DHT22;397;50.564;7.272;2023-07-16T07:59:44;24.40;65.50
831;DHT22;397;50.564;7.272;2023-07-16T08:02:11;24.10;63.70
831;DHT22;397;50.564;7.272;2023-07-16T08:04:39;24.30;64.90
831;DHT22;397;50.564;7.272;2023-07-16T08:07:06;24.50;65.30
831;DHT22;397;50.564;7.272;2023-07-16T08:09:34;24.50;66.00
831;DHT22;397;50.564;7.272;2023-07-16T08:12:01;24.70;64.60
831;DHT22;397;50.564;7.272;2023-07-16T08:14:28;24.80;64.50
831;DHT22;397;50.564;7.272;2023-07-16T08:16:56;24.90;65.90
831;DHT22;397;50.564;7.272;2023-07-16T08:19:23;24.90;64.00
831;DHT22;397;50.564;7.272;2023-07-16T08:21:51;24.70;64.10
831;DHT22;397;50.564;7.272;2023-07-16T08:24:18;24.80;64.30
831;DHT22;397;50.564;7.272;2023-07-16T08:26:46;25.00;63.60
831;DHT22;397;50.564;7.272;2023-07-16T08:29:14;25.10;63.30
831;DHT22;397;50.564;7.272;2023-07-16T08:31:41;25.50;63.40
831;DHT22;397;50.564;7.272;2023-07-16T08:34:09;25.20;62.90
831;DHT22;397;50.564;7.272;2023-07-16T08:36:37;25.00;62.00
831;DHT22;397;50.564;7.272;2023-07-16T08:39:04;24.90;61.90
831;DHT22;397;50.564;7.272;2023-07-16T08:41:32;24.80;62.60
831;DHT22;397;50.564;7.272;2023-07-16T08:43:59;24.90;61.90
831;DHT22;397;50.564;7.272;2023-07-16T08:46:27;24.70;61.00
831;DHT22;397;50.564;7.272;2023-07-16T08:48:55;24.90;61.40
831;DHT22;397;50.564;7.272;2023-07-16T08:51:24;25.20;61.00
831;DHT22;397;50.564;7.272;2023-07-16T08:53:52;25.20;60.10
831;DHT22;397;50.564;7.272;2023-07-16T08:56:20;25.30;60.70
831;DHT22;397;50.564;7.272;2023-07-16T08:58:49;25.30;60.70
831;DHT22;397;50.564;7.272;2023-07-16T09:01:18;25.30;60.20
831;DHT22;397;50.564;7.272;2023-07-16T09:03:45;25.30;59.60
831;DHT22;397;50.564;7.272;2023-07-16T09:06:13;25.40;60.30
831;DHT22;397;50.564;7.272;2023-07-16T09:08:40;25.40;59.60
831;DHT22;397;50.564;7.272;2023-07-16T09:11:12;25.50;59.40
831;DHT22;397;50.564;7.272;2023-07-16T09:13:44;25.60;59.20
831;DHT22;397;50.564;7.272;2023-07-16T09:16:12;25.30;58.60
831;DHT22;397;50.564;7.272;2023-07-16T09:18:41;24.90;59.30
831;DHT22;397;50.564;7.272;2023-07-16T09:21:09;25.10;59.30
831;DHT22;397;50.564;7.272;2023-07-16T09:23:36;24.90;59.00
831;DHT22;397;50.564;7.272;2023-07-16T09:26:04;24.90;60.20
831;DHT22;397;50.564;7.272;2023-07-16T09:28:33;25.10;60.20
831;DHT22;397;50.564;7.272;2023-07-16T09:31:07;25.10;58.60
831;DHT22;397;50.564;7.272;2023-07-16T09:33:35;25.00;59.60
831;DHT22;397;50.564;7.272;2023-07-16T09:36:03;25.50;60.00
831;DHT22;397;50.564;7.272;2023-07-16T09:38:32;25.60;59.30
831;DHT22;397;50.564;7.272;2023-07-16T09:41:00;25.90;59.40
831;DHT22;397;50.564;7.272;2023-07-16T09:43:30;25.70;59.20
831;DHT22;397;50.564;7.272;2023-07-16T09:45:57;25.50;58.60
831;DHT22;397;50.564;7.272;2023-07-16T09:48:25;26.00;59.70
831;DHT22;397;50.564;7.272;2023-07-16T09:50:54;25.80;57.80
831;DHT22;397;50.564;7.272;2023-07-16T09:53:24;25.70;58.00
831;DHT22;397;50.564;7.272;2023-07-16T09:55:53;25.70;58.70
831;DHT22;397;50.564;7.272;2023-07-16T09:58:21;25.40;58.10
831;DHT22;397;50.564;7.272;2023-07-16T10:00:49;25.30;58.40
831;DHT22;397;50.564;7.272;2023-07-16T10:03:17;25.60;59.10
831;DHT22;397;50.564;7.272;2023-07-16T10:05:45;25.80;58.80
831;DHT22;397;50.564;7.272;2023-07-16T10:08:19;25.90;58.10
831;DHT22;397;50.564;7.272;2023-07-16T10:10:54;26.00;58.30
831;DHT22;397;50.564;7.272;2023-07-16T10:13:24;25.90;58.70
831;DHT22;397;50.564;7.272;2023-07-16T10:15:53;26.10;58.40
831;DHT22;397;50.564;7.272;2023-07-16T10:18:29;26.30;58.30
831;DHT22;397;50.564;7.272;2023-07-16T10:21:09;26.40;58.70
831;DHT22;397;50.564;7.272;2023-07-16T10:23:43;26.30;57.00
831;DHT22;397;50.564;7.272;2023-07-16T10:26:07;26.20;57.10
831;DHT22;397;50.564;7.272;2023-07-16T10:28:36;26.00;57.60
831;DHT22;397;50.564;7.272;2023-07-16T10:31:05;26.00;57.90
831;DHT22;397;50.564;7.272;2023-07-16T10:33:34;26.20;57.80
831;DHT22;397;50.564;7.272;2023-07-16T10:36:04;26.30;57.00
831;DHT22;397;50.564;7.272;2023-07-16T10:38:40;26.20;56.50
831;DHT22;397;50.564;7.272;2023-07-16T10:41:02;26.30;56.90
831;DHT22;397;50.564;7.272;2023-07-16T10:43:29;26.50;56.80
831;DHT22;397;50.564;7.272;2023-07-16T10:45:57;26.70;57.50
831;DHT22;397;50.564;7.272;2023-07-16T10:48:25;26.50;56.70
831;DHT22;397;50.564;7.272;2023-07-16T10:50:55;26.30;56.20
831;DHT22;397;50.564;7.272;2023-07-16T10:53:23;26.00;55.30
831;DHT22;397;50.564;7.272;2023-07-16T10:55:50;26.40;56.30
831;DHT22;397;50.564;7.272;2023-07-16T10:58:18;26.50;55.80
831;DHT22;397;50.564;7.272;2023-07-16T11:00:46;26.00;56.00
831;DHT22;397;50.564;7.272;2023-07-16T11:03:16;25.70;56.00
831;DHT22;397;50.564;7.272;2023-07-16T11:05:46;26.10;55.50
831;DHT22;397;50.564;7.272;2023-07-16T11:08:23;26.30;55.30
831;DHT22;397;50.564;7.272;2023-07-16T11:10:58;26.60;56.60
831;DHT22;397;50.564;7.272;2023-07-16T11:13:33;26.90;54.70
831;DHT22;397;50.564;7.272;2023-07-16T11:16:07;26.90;55.10
831;DHT22;397;50.564;7.272;2023-07-16T11:18:35;27.10;55.20
831;DHT22;397;50.564;7.272;2023-07-16T11:21:03;26.90;54.40
831;DHT22;397;50.564;7.272;2023-07-16T11:23:35;26.50;53.30
831;DHT22;397;50.564;7.272;2023-07-16T11:26:03;26.50;54.20
831;DHT22;397;50.564;7.272;2023-07-16T11:28:42;26.90;53.90
831;DHT22;397;50.564;7.272;2023-07-16T11:31:16;26.90;53.70
831;DHT22;397;50.564;7.272;2023-07-16T11:33:45;26.70;53.60
831;DHT22;397;50.564;7.272;2023-07-16T11:36:13;26.40;54.00
831;DHT22;397;50.564;7.272;2023-07-16T11:38:40;25.90;54.70
831;DHT22;397;50.564;7.272;2023-07-16T11:41:09;26.00;54.60
831;DHT22;397;50.564;7.272;2023-07-16T11:43:37;26.10;54.20
831;DHT22;397;50.564;7.272;2023-07-16T11:46:14;26.20;54.00
831;DHT22;397;50.564;7.272;2023-07-16T11:48:36;26.50;54.60
831;DHT22;397;50.564;7.272;2023-07-16T11:51:04;26.60;54.30
831;DHT22;397;50.564;7.272;2023-07-16T11:53:31;26.60;53.90
831;DHT22;397;50.564;7.272;2023-07-16T11:55:59;26.90;54.30
831;DHT22;397;50.564;7.272;2023-07-16T11:58:26;26.50;53.00
831;DHT22;397;50.564;7.272;2023-07-16T12:00:54;26.70;53.60
831;DHT22;397;50.564;7.272;2023-07-16T12:03:21;26.80;53.00
831;DHT22;397;50.564;7.272;2023-07-16T12:05:49;26.90;53.10
831;DHT22;397;50.564;7.272;2023-07-16T12:08:16;26.40;53.10
831;DHT22;397;50.564;7.272;2023-07-16T12:10:44;26.00;53.50
831;DHT22;397;50.564;7.272;2023-07-16T12:13:11;26.20;53.90
831;DHT22;397;50.564;7.272;2023-07-16T12:15:39;26.40;53.20
831;DHT22;397;50.564;7.272;2023-07-16T12:18:06;26.50;52.70
831;DHT22;397;50.564;7.272;2023-07-16T12:20:37;26.30;53.40
831;DHT22;397;50.564;7.272;2023-07-16T12:23:06;26.20;53.00
831;DHT22;397;50.564;7.272;2023-07-16T12:25:33;26.50;53.40
831;DHT22;397;50.564;7.272;2023-07-16T12:28:01;26.80;52.90
831;DHT22;397;50.564;7.272;2023-07-16T12:30:29;26.50;52.50
831;DHT22;397;50.564;7.272;2023-07-16T12:32:56;26.40;52.30
831;DHT22;397;50.564;7.272;2023-07-16T12:35:24;26.80;53.40
831;DHT22;397;50.564;7.272;2023-07-16T12:37:51;26.90;52.00
831;DHT22;397;50.564;7.272;2023-07-16T12:40:18;27.10;51.10
831;DHT22;397;50.564;7.272;2023-07-16T12:42:46;27.00;50.40
831;DHT22;397;50.564;7.272;2023-07-16T12:45:13;27.10;50.60
831;DHT22;397;50.564;7.272;2023-07-16T12:47:41;26.70;50.70
831;DHT22;397;50.564;7.272;2023-07-16T12:50:09;26.20;51.00
831;DHT22;397;50.564;7.272;2023-07-16T12:52:36;26.20;52.30
831;DHT22;397;50.564;7.272;2023-07-16T12:55:04;26.80;52.60
831;DHT22;397;50.564;7.272;2023-07-16T12:57:32;27.10;51.70
831;DHT22;397;50.564;7.272;2023-07-16T12:59:59;27.30;51.50
831;DHT22;397;50.564;7.272;2023-07-16T13:02:28;27.20;51.40
831;DHT22;397;50.564;7.272;2023-07-16T13:04:55;27.20;51.50
831;DHT22;397;50.564;7.272;2023-07-16T13:07:23;27.30;51.00
831;DHT22;397;50.564;7.272;2023-07-16T13:09:50;26.90;50.10
831;DHT22;397;50.564;7.272;2023-07-16T13:12:18;26.70;50.80
831;DHT22;397;50.564;7.272;2023-07-16T13:14:45;26.90;51.20
831;DHT22;397;50.564;7.272;2023-07-16T13:17:13;27.00;50.60
831;DHT22;397;50.564;7.272;2023-07-16T13:19:42;26.80;50.50
831;DHT22;397;50.564;7.272;2023-07-16T13:22:09;27.00;51.20
831;DHT22;397;50.564;7.272;2023-07-16T13:24:37;27.40;51.90
831;DHT22;397;50.564;7.272;2023-07-16T13:27:05;27.40;50.70
831;DHT22;397;50.564;7.272;2023-07-16T13:29:32;27.20;49.50
831;DHT22;397;50.564;7.272;2023-07-16T13:32:00;27.00;51.10
831;DHT22;397;50.564;7.272;2023-07-16T13:34:27;27.20;50.80
831;DHT22;397;50.564;7.272;2023-07-16T13:36:55;27.20;51.40
831;DHT22;397;50.564;7.272;2023-07-16T13:39:22;27.50;50.20
831;DHT22;397;50.564;7.272;2023-07-16T13:41:50;27.50;50.60
831;DHT22;397;50.564;7.272;2023-07-16T13:44:17;27.40;50.10
831;DHT22;397;50.564;7.272;2023-07-16T13:46:45;27.30;50.70
831;DHT22;397;50.564;7.272;2023-07-16T13:49:13;27.10;50.70
831;DHT22;397;50.564;7.272;2023-07-16T13:51:40;27.10;50.70
831;DHT22;397;50.564;7.272;2023-07-16T13:54:09;26.90;50.60
831;DHT22;397;50.564;7.272;2023-07-16T13:56:37;27.00;50.80
831;DHT22;397;50.564;7.272;2023-07-16T13:59:04;27.30;50.10
831;DHT22;397;50.564;7.272;2023-07-16T14:01:32;27.40;50.20
831;DHT22;397;50.564;7.272;2023-07-16T14:03:59;27.50;49.90
831;DHT22;397;50.564;7.272;2023-07-16T14:06:27;27.40;50.10
831;DHT22;397;50.564;7.272;2023-07-16T14:08:54;27.40;50.30
831;DHT22;397;50.564;7.272;2023-07-16T14:11:22;27.40;50.40
831;DHT22;397;50.564;7.272;2023-07-16T14:13:50;27.30;51.10
831;DHT22;397;50.564;7.272;2023-07-16T14:16:20;27.30;50.30
831;DHT22;397;50.564;7.272;2023-07-16T14:18:50;27.10;49.60
831;DHT22;397;50.564;7.272;2023-07-16T14:21:20;27.30;50.00
831;DHT22;397;50.564;7.272;2023-07-16T14:23:47;27.20;50.00
831;DHT22;397;50.564;7.272;2023-07-16T14:26:15;27.10;50.40
831;DHT22;397;50.564;7.272;2023-07-16T14:28:43;26.90;50.60
831;DHT22;397;50.564;7.272;2023-07-16T14:31:10;26.40;50.60
831;DHT22;397;50.564;7.272;2023-07-16T14:33:39;26.60;51.20
831;DHT22;397;50.564;7.272;2023-07-16T14:36:07;26.60;51.80
831;DHT22;397;50.564;7.272;2023-07-16T14:38:34;26.70;51.70
831;DHT22;397;50.564;7.272;2023-07-16T14:41:02;26.50;51.50
831;DHT22;397;50.564;7.272;2023-07-16T14:43:31;26.60;51.50
831;DHT22;397;50.564;7.272;2023-07-16T14:45:58;26.90;51.80
831;DHT22;397;50.564;7.272;2023-07-16T14:48:26;27.20;51.90
831;DHT22;397;50.564;7.272;2023-07-16T14:50:56;26.80;51.30
831;DHT22;397;50.564;7.272;2023-07-16T14:53:23;26.30;51.50
831;DHT22;397;50.564;7.272;2023-07-16T14:55:52;26.10;51.80
831;DHT22;397;50.564;7.272;2023-07-16T14:58:20;26.10;52.00
831;DHT22;397;50.564;7.272;2023-07-16T15:00:48;26.20;52.30
831;DHT22;397;50.564;7.272;2023-07-16T15:03:16;26.40;52.30
831;DHT22;397;50.564;7.272;2023-07-16T15:05:44;26.50;52.40
831;DHT22;397;50.564;7.272;2023-07-16T15:08:11;26.50;52.20
831;DHT22;397;50.564;7.272;2023-07-16T15:10:38;26.40;51.90
831;DHT22;397;50.564;7.272;2023-07-16T15:13:07;26.30;52.50
831;DHT22;397;50.564;7.272;2023-07-16T15:15:34;26.30;52.20
831;DHT22;397;50.564;7.272;2023-07-16T15:18:02;26.40;52.30
831;DHT22;397;50.564;7.272;2023-07-16T15:20:30;26.50;52.20
831;DHT22;397;50.564;7.272;2023-07-16T15:22:57;26.60;52.60
831;DHT22;397;50.564;7.272;2023-07-16T15:25:25;26.60;52.10
831;DHT22;397;50.564;7.272;2023-07-16T15:27:52;26.60;52.40
831;DHT22;397;50.564;7.272;2023-07-16T15:30:20;26.30;52.20
831;DHT22;397;50.564;7.272;2023-07-16T15:32:47;26.30;52.20
831;DHT22;397;50.564;7.272;2023-07-16T15:35:15;26.40;52.60
831;DHT22;397;50.564;7.272;2023-07-16T15:37:42;26.50;52.60
831;DHT22;397;50.564;7.272;2023-07-16T15:40:14;26.60;52.50
831;DHT22;397;50.564;7.272;2023-07-16T15:42:43;26.70;52.70
831;DHT22;397;50.564;7.272;2023-07-16T15:45:12;26.60;52.10
831;DHT22;397;50.564;7.272;2023-07-16T15:47:43;26.50;52.40
831;DHT22;397;50.564;7.272;2023-07-16T15:50:10;26.40;52.70
831;DHT22;397;50.564;7.272;2023-07-16T15:52:38;26.20;52.40
831;DHT22;397;50.564;7.272;2023-07-16T15:55:06;26.20;52.60
831;DHT22;397;50.564;7.272;2023-07-16T15:57:34;26.40;52.80
831;DHT22;397;50.564;7.272;2023-07-16T16:00:01;26.30;52.20
831;DHT22;397;50.564;7.272;2023-07-16T16:02:30;26.20;51.90
831;DHT22;397;50.564;7.272;2023-07-16T16:04:58;26.10;52.70
831;DHT22;397;50.564;7.272;2023-07-16T16:07:25;26.20;52.50
831;DHT22;397;50.564;7.272;2023-07-16T16:09:53;26.20;52.20
831;DHT22;397;50.564;7.272;2023-07-16T16:12:20;26.40;52.40
831;DHT22;397;50.564;7.272;2023-07-16T16:14:48;26.40;52.20
831;DHT22;397;50.564;7.272;2023-07-16T16:17:15;26.20;51.90
831;DHT22;397;50.564;7.272;2023-07-16T16:19:43;25.90;51.50
831;DHT22;397;50.564;7.272;2023-07-16T16:22:11;25.80;52.10
831;DHT22;397;50.564;7.272;2023-07-16T16:24:38;25.70;52.40
831;DHT22;397;50.564;7.272;2023-07-16T16:27:06;25.60;52.80
831;DHT22;397;50.564;7.272;2023-07-16T16:29:34;25.70;52.50
831;DHT22;397;50.564;7.272;2023-07-16T16:32:01;25.60;52.10
831;DHT22;397;50.564;7.272;2023-07-16T16:34:29;25.70;52.30
831;DHT22;397;50.564;7.272;2023-07-16T16:36:56;25.70;52.40
831;DHT22;397;50.564;7.272;2023-07-16T16:39:24;25.80;52.60
831;DHT22;397;50.564;7.272;2023-07-16T16:41:52;25.80;52.50
831;DHT22;397;50.564;7.272;2023-07-16T16:44:19;25.70;52.70